sensor_id;sensor_type;location;lat;lon;timestamp;pressure;altitude;pressure_sealevel;temperature;humidity
76448;BME280;65284;51.040;13.722;2024-02-23T00:02:07;97186.84;;;10.45;94.98
76448;BME280;65284;51.040;13.722;2024-02-23T00:04:34;97183.41;;;10.44;95.01
76448;BME280;65284;51.040;13.722;2024-02-23T00:07:00;97186.84;;;10.45;94.85
76448;BME280;65284;51.040;13.722;2024-02-23T00:09:29;97190.91;;;10.47;94.14
76448;BME280;65284;51.040;13.722;2024-02-23T00:11:55;97181.09;;;10.48;94.44
76448;BME280;65284;51.040;13.722;2024-02-23T00:14:22;97194.34;;;10.60;92.99
76448;BME280;65284;51.040;13.722;2024-02-23T00:16:48;97190.31;;;10.81;90.58
76448;BME280;65284;51.040;13.722;2024-02-23T00:19:15;97187.66;;;10.81;90.59
76448;BME280;65284;51.040;13.722;2024-02-23T00:21:44;97194.81;;;10.80;90.09
76448;BME280;65284;51.040;13.722;2024-02-23T00:24:13;97203.91;;;11.08;86.92
76448;BME280;65284;51.040;13.722;2024-02-23T00:26:43;97193.53;;;11.18;84.97
76448;BME280;65284;51.040;13.722;2024-02-23T00:29:09;97199.38;;;11.32;82.67
76448;BME280;65284;51.040;13.722;2024-02-23T00:31:38;97203.03;;;11.43;82.05
76448;BME280;65284;51.040;13.722;2024-02-23T00:34:05;97208.00;;;11.51;81.16
76448;BME280;65284;51.040;13.722;2024-02-23T00:36:31;97216.03;;;11.56;80.31
76448;BME280;65284;51.040;13.722;2024-02-23T00:38:58;97208.75;;;11.63;79.87
76448;BME280;65284;51.040;13.722;2024-02-23T00:41:24;97200.69;;;11.58;79.51
76448;BME280;65284;51.040;13.722;2024-02-23T00:43:51;97200.41;;;11.71;78.44
76448;BME280;65284;51.040;13.722;2024-02-23T00:46:17;97193.94;;;11.67;78.44
76448;BME280;65284;51.040;13.722;2024-02-23T00:48:44;97195.91;;;11.72;77.83
76448;BME280;65284;51.040;13.722;2024-02-23T00:51:10;97207.13;;;11.62;78.55
76448;BME280;65284;51.040;13.722;2024-02-23T00:53:37;97196.03;;;11.65;77.96
76448;BME280;65284;51.040;13.722;2024-02-23T00:56:04;97189.69;;;11.66;77.32
76448;BME280;65284;51.040;13.722;2024-02-23T00:58:31;97194.19;;;11.66;77.01
76448;BME280;65284;51.040;13.722;2024-02-23T01:00:57;97183.41;;;11.72;75.83
76448;BME280;65284;51.040;13.722;2024-02-23T01:03:23;97187.19;;;11.76;75.04
76448;BME280;65284;51.040;13.722;2024-02-23T01:05:50;97181.88;;;11.76;74.58
76448;BME280;65284;51.040;13.722;2024-02-23T01:08:16;97179.47;;;11.75;74.64
76448;BME280;65284;51.040;13.722;2024-02-23T01:10:43;97196.06;;;11.82;74.74
76448;BME280;65284;51.040;13.722;2024-02-23T01:13:10;97210.56;;;11.74;73.97
76448;BME280;65284;51.040;13.722;2024-02-23T01:15:37;97205.44;;;11.84;73.94
76448;BME280;65284;51.040;13.722;2024-02-23T01:18:04;97211.69;;;11.78;74.01
76448;BME280;65284;51.040;13.722;2024-02-23T01:20:32;97230.41;;;11.83;73.63
76448;BME280;65284;51.040;13.722;2024-02-23T01:22:59;97239.00;;;11.74;74.45
76448;BME280;65284;51.040;13.722;2024-02-23T01:25:25;97233.66;;;11.74;74.05
76448;BME280;65284;51.040;13.722;2024-02-23T01:27:52;97244.09;;;11.75;74.39
76448;BME280;65284;51.040;13.722;2024-02-23T01:30:19;97250.34;;;11.69;74.33
76448;BME280;65284;51.040;13.722;2024-02-23T01:32:45;97263.06;;;11.67;73.65
76448;BME280;65284;51.040;13.722;2024-02-23T01:35:12;97276.94;;;11.69;73.49
76448;BME280;65284;51.040;13.722;2024-02-23T01:37:39;97281.66;;;11.67;73.39
76448;BME280;65284;51.040;13.722;2024-02-23T01:40:06;97297.28;;;11.64;73.48
76448;BME280;65284;51.040;13.722;2024-02-23T01:42:32;97300.97;;;11.74;71.96
76448;BME280;65284;51.040;13.722;2024-02-23T01:44:59;97293.66;;;11.81;71.19
76448;BME280;65284;51.040;13.722;2024-02-23T01:47:28;97299.44;;;11.78;71.56
76448;BME280;65284;51.040;13.722;2024-02-23T01:49:57;97306.28;;;11.74;71.38
76448;BME280;65284;51.040;13.722;2024-02-23T01:52:25;97310.44;;;11.70;71.82
76448;BME280;65284;51.040;13.722;2024-02-23T01:54:53;97309.31;;;11.66;71.71
76448;BME280;65284;51.040;13.722;2024-02-23T01:57:21;97308.25;;;11.67;71.35
76448;BME280;65284;51.040;13.722;2024-02-23T02:00:10;97319.47;;;11.69;70.96
76448;BME280;65284;51.040;13.722;2024-02-23T02:02:39;97313.81;;;11.77;70.05
76448;BME280;65284;51.040;13.722;2024-02-23T02:05:06;97340.59;;;11.76;70.23
76448;BME280;65284;51.040;13.722;2024-02-23T02:07:34;97336.69;;;11.78;69.49
76448;BME280;65284;51.040;13.722;2024-02-23T02:10:00;97326.25;;;11.77;69.23
76448;BME280;65284;51.040;13.722;2024-02-23T02:12:28;97332.88;;;11.74;69.39
76448;BME280;65284;51.040;13.722;2024-02-23T02:14:54;97344.88;;;11.65;69.82
76448;BME280;65284;51.040;13.722;2024-02-23T02:17:22;97353.13;;;11.64;69.67
76448;BME280;65284;51.040;13.722;2024-02-23T02:19:48;97363.63;;;11.70;69.66
76448;BME280;65284;51.040;13.722;2024-02-23T02:22:15;97372.41;;;11.59;69.50
76448;BME280;65284;51.040;13.722;2024-02-23T02:24:41;97379.13;;;11.50;69.34
76448;BME280;65284;51.040;13.722;2024-02-23T02:27:10;97378.56;;;11.48;69.40
76448;BME280;65284;51.040;13.722;2024-02-23T02:29:36;97374.25;;;11.47;68.65
76448;BME280;65284;51.040;13.722;2024-02-23T02:32:03;97375.91;;;11.48;67.14
76448;BME280;65284;51.040;13.722;2024-02-23T02:34:30;97382.69;;;11.44;67.43
76448;BME280;65284;51.040;13.722;2024-02-23T02:36:56;97385.47;;;11.37;67.47
76448;BME280;65284;51.040;13.722;2024-02-23T02:39:22;97403.84;;;11.38;67.39
76448;BME280;65284;51.040;13.722;2024-02-23T02:41:49;97397.16;;;11.36;66.74
76448;BME280;65284;51.040;13.722;2024-02-23T02:44:15;97397.03;;;11.31;67.44
76448;BME280;65284;51.040;13.722;2024-02-23T02:46:42;97396.09;;;11.25;66.83
76448;BME280;65284;51.040;13.722;2024-02-23T02:49:09;97402.00;;;11.27;66.91
76448;BME280;65284;51.040;13.722;2024-02-23T02:51:35;97409.97;;;11.27;66.62
76448;BME280;65284;51.040;13.722;2024-02-23T02:54:02;97411.44;;;11.23;67.07
76448;BME280;65284;51.040;13.722;2024-02-23T02:56:29;97428.19;;;11.24;66.74
76448;BME280;65284;51.040;13.722;2024-02-23T02:58:55;97445.16;;;11.11;67.30
76448;BME280;65284;51.040;13.722;2024-02-23T03:01:22;97443.66;;;11.15;66.53
76448;BME280;65284;51.040;13.722;2024-02-23T03:03:49;97474.38;;;11.11;67.06
76448;BME280;65284;51.040;13.722;2024-02-23T03:06:15;97471.47;;;11.01;67.80
76448;BME280;65284;51.040;13.722;2024-02-23T03:08:42;97468.22;;;10.99;67.36
76448;BME280;65284;51.040;13.722;2024-02-23T03:11:09;97456.91;;;10.91;67.70
76448;BME280;65284;51.040;13.722;2024-02-23T03:13:35;97456.06;;;10.91;67.30
76448;BME280;65284;51.040;13.722;2024-02-23T03:16:02;97473.19;;;10.95;66.94
76448;BME280;65284;51.040;13.722;2024-02-23T03:18:28;97494.94;;;10.85;67.23
76448;BME280;65284;51.040;13.722;2024-02-23T03:20:55;97498.66;;;10.84;66.94
76448;BME280;65284;51.040;13.722;2024-02-23T03:23:21;97491.72;;;10.83;67.34
76448;BME280;65284;51.040;13.722;2024-02-23T03:25:48;97499.78;;;10.77;66.94
76448;BME280;65284;51.040;13.722;2024-02-23T03:28:15;97505.66;;;10.79;66.99
76448;BME280;65284;51.040;13.722;2024-02-23T03:30:42;97511.50;;;10.69;67.64
76448;BME280;65284;51.040;13.722;2024-02-23T03:33:08;97523.38;;;10.66;67.21
76448;BME280;65284;51.040;13.722;2024-02-23T03:35:34;97529.50;;;10.67;67.43
76448;BME280;65284;51.040;13.722;2024-02-23T03:38:01;97525.50;;;10.58;67.81
76448;BME280;65284;51.040;13.722;2024-02-23T03:40:28;97534.97;;;10.54;68.19
76448;BME280;65284;51.040;13.722;2024-02-23T03:42:54;97538.06;;;10.51;67.91
76448;BME280;65284;51.040;13.722;2024-02-23T03:45:20;97554.56;;;10.53;66.98
76448;BME280;65284;51.040;13.722;2024-02-23T03:47:47;97557.28;;;10.46;65.61
76448;BME280;65284;51.040;13.722;2024-02-23T03:50:14;97586.56;;;10.39;64.99
76448;BME280;65284;51.040;13.722;2024-02-23T03:52:40;97599.88;;;10.33;64.96
76448;BME280;65284;51.040;13.722;2024-02-23T03:55:07;97602.13;;;10.29;65.53
76448;BME280;65284;51.040;13.722;2024-02-23T03:57:33;97610.09;;;10.29;66.29
76448;BME280;65284;51.040;13.722;2024-02-23T04:00:00;97665.03;;;10.22;66.53
76448;BME280;65284;51.040;13.722;2024-02-23T04:02:26;97617.41;;;10.09;64.85
76448;BME280;65284;51.040;13.722;2024-02-23T04:04:53;97653.16;;;9.99;63.39
76448;BME280;65284;51.040;13.722;2024-02-23T04:07:20;97647.72;;;9.94;63.17
76448;BME280;65284;51.040;13.722;2024-02-23T04:09:47;97660.78;;;9.89;61.89
76448;BME280;65284;51.040;13.722;2024-02-23T04:12:19;97697.94;;;9.83;59.19
76448;BME280;65284;51.040;13.722;2024-02-23T04:14:46;97682.91;;;9.76;58.68
76448;BME280;65284;51.040;13.722;2024-02-23T04:17:13;97689.06;;;9.70;56.75
76448;BME280;65284;51.040;13.722;2024-02-23T04:19:43;97689.06;;;9.70;55.86
76448;BME280;65284;51.040;13.722;2024-02-23T04:22:09;97675.38;;;9.67;56.73
76448;BME280;65284;51.040;13.722;2024-02-23T04:24:39;97679.50;;;9.63;57.64
76448;BME280;65284;51.040;13.722;2024-02-23T04:27:06;97665.63;;;9.67;56.65
76448;BME280;65284;51.040;13.722;2024-02-23T04:29:32;97683.34;;;9.67;57.38
76448;BME280;65284;51.040;13.722;2024-02-23T04:32:00;97684.56;;;9.64;57.73
76448;BME280;65284;51.040;13.722;2024-02-23T04:34:27;97691.72;;;9.64;57.83
76448;BME280;65284;51.040;13.722;2024-02-23T04:36:54;97695.63;;;9.54;57.25
76448;BME280;65284;51.040;13.722;2024-02-23T04:39:21;97695.44;;;9.49;58.69
76448;BME280;65284;51.040;13.722;2024-02-23T04:41:47;97710.16;;;9.45;58.43
76448;BME280;65284;51.040;13.722;2024-02-23T04:44:14;97707.53;;;9.39;58.46
76448;BME280;65284;51.040;13.722;2024-02-23T04:46:40;97718.94;;;9.39;58.39
76448;BME280;65284;51.040;13.722;2024-02-23T04:49:07;97711.84;;;9.33;58.56
76448;BME280;65284;51.040;13.722;2024-02-23T04:51:33;97728.34;;;9.35;58.87
76448;BME280;65284;51.040;13.722;2024-02-23T04:54:00;97733.63;;;9.35;58.32
76448;BME280;65284;51.040;13.722;2024-02-23T04:56:26;97736.50;;;9.27;59.06
76448;BME280;65284;51.040;13.722;2024-02-23T04:58:53;97741.00;;;9.20;59.67
76448;BME280;65284;51.040;13.722;2024-02-23T05:01:19;97743.88;;;9.11;60.35
76448;BME280;65284;51.040;13.722;2024-02-23T05:03:46;97762.63;;;9.10;60.73
76448;BME280;65284;51.040;13.722;2024-02-23T05:06:12;97776.50;;;9.05;60.75
76448;BME280;65284;51.040;13.722;2024-02-23T05:08:39;97790.31;;;9.07;61.23
76448;BME280;65284;51.040;13.722;2024-02-23T05:11:06;97800.91;;;9.07;61.62
76448;BME280;65284;51.040;13.722;2024-02-23T05:13:32;97802.56;;;9.08;60.78
76448;BME280;65284;51.040;13.722;2024-02-23T05:15:59;97796.84;;;8.98;61.43
76448;BME280;65284;51.040;13.722;2024-02-23T05:18:25;97796.25;;;8.96;61.53
76448;BME280;65284;51.040;13.722;2024-02-23T05:20:52;97809.88;;;8.93;61.62
76448;BME280;65284;51.040;13.722;2024-02-23T05:23:20;97792.38;;;8.92;62.37
76448;BME280;65284;51.040;13.722;2024-02-23T05:25:47;97795.03;;;8.92;61.91
76448;BME280;65284;51.040;13.722;2024-02-23T05:28:13;97796.63;;;8.93;61.80
76448;BME280;65284;51.040;13.722;2024-02-23T05:30:39;97810.28;;;9.03;61.83
76448;BME280;65284;51.040;13.722;2024-02-23T05:33:07;97811.53;;;8.94;62.20
76448;BME280;65284;51.040;13.722;2024-02-23T05:35:34;97803.78;;;8.93;62.23
76448;BME280;65284;51.040;13.722;2024-02-23T05:38:01;97803.38;;;8.89;62.23
76448;BME280;65284;51.040;13.722;2024-02-23T05:40:27;97806.63;;;8.91;61.06
76448;BME280;65284;51.040;13.722;2024-02-23T05:42:54;97798.31;;;8.87;60.27
76448;BME280;65284;51.040;13.722;2024-02-23T05:45:21;97823.31;;;8.78;60.84
76448;BME280;65284;51.040;13.722;2024-02-23T05:47:48;97812.53;;;8.80;59.55
76448;BME280;65284;51.040;13.722;2024-02-23T05:50:15;97817.22;;;8.78;58.79
76448;BME280;65284;51.040;13.722;2024-02-23T05:52:42;97838.78;;;8.75;57.61
76448;BME280;65284;51.040;13.722;2024-02-23T05:55:09;97827.81;;;8.71;57.68
76448;BME280;65284;51.040;13.722;2024-02-23T05:57:35;97834.31;;;8.69;57.70
76448;BME280;65284;51.040;13.722;2024-02-23T06:00:02;97826.59;;;8.67;57.47
76448;BME280;65284;51.040;13.722;2024-02-23T06:02:29;97840.41;;;8.69;57.29
76448;BME280;65284;51.040;13.722;2024-02-23T06:04:55;97847.31;;;8.63;57.83
76448;BME280;65284;51.040;13.722;2024-02-23T06:07:22;97837.16;;;8.60;57.62
76448;BME280;65284;51.040;13.722;2024-02-23T06:09:58;97849.97;;;8.57;57.43
76448;BME280;65284;51.040;13.722;2024-02-23T06:12:24;97863.81;;;8.52;57.50
76448;BME280;65284;51.040;13.722;2024-02-23T06:14:51;97879.06;;;8.50;57.94
76448;BME280;65284;51.040;13.722;2024-02-23T06:17:18;97866.47;;;8.52;57.66
76448;BME280;65284;51.040;13.722;2024-02-23T06:19:44;97868.47;;;8.50;57.49
76448;BME280;65284;51.040;13.722;2024-02-23T06:22:11;97866.63;;;8.44;58.06
76448;BME280;65284;51.040;13.722;2024-02-23T06:24:38;97867.25;;;8.46;58.51
76448;BME280;65284;51.040;13.722;2024-02-23T06:27:05;97890.03;;;8.47;57.91
76448;BME280;65284;51.040;13.722;2024-02-23T06:29:31;97891.25;;;8.45;57.83
76448;BME280;65284;51.040;13.722;2024-02-23T06:31:58;97892.88;;;8.39;59.21
76448;BME280;65284;51.040;13.722;2024-02-23T06:34:24;97889.56;;;8.37;58.55
76448;BME280;65284;51.040;13.722;2024-02-23T06:36:51;97894.84;;;8.37;59.06
76448;BME280;65284;51.040;13.722;2024-02-23T06:39:18;97892.00;;;8.32;59.71
76448;BME280;65284;51.040;13.722;2024-02-23T06:41:44;97891.78;;;8.33;58.88
76448;BME280;65284;51.040;13.722;2024-02-23T06:44:11;97891.19;;;8.31;59.40
76448;BME280;65284;51.040;13.722;2024-02-23T06:46:38;97890.81;;;8.34;59.24
76448;BME280;65284;51.040;13.722;2024-02-23T06:49:04;97893.44;;;8.34;59.57
76448;BME280;65284;51.040;13.722;2024-02-23T06:51:31;97898.53;;;8.36;59.47
76448;BME280;65284;51.040;13.722;2024-02-23T06:53:58;97898.78;;;8.41;58.98
76448;BME280;65284;51.040;13.722;2024-02-23T06:56:24;97893.69;;;8.39;59.14
76448;BME280;65284;51.040;13.722;2024-02-23T06:58:51;97899.16;;;8.38;59.42
76448;BME280;65284;51.040;13.722;2024-02-23T07:01:20;97909.91;;;8.36;59.82
76448;BME280;65284;51.040;13.722;2024-02-23T07:03:46;97902.06;;;8.43;59.22
76448;BME280;65284;51.040;13.722;2024-02-23T07:06:15;97892.47;;;8.42;59.62
76448;BME280;65284;51.040;13.722;2024-02-23T07:08:44;97895.88;;;8.36;60.26
76448;BME280;65284;51.040;13.722;2024-02-23T07:11:11;97892.59;;;8.34;60.97
76448;BME280;65284;51.040;13.722;2024-02-23T07:13:38;97888.81;;;8.43;60.70
76448;BME280;65284;51.040;13.722;2024-02-23T07:16:06;97908.34;;;8.42;61.09
76448;BME280;65284;51.040;13.722;2024-02-23T07:18:32;97929.91;;;8.39;60.66
76448;BME280;65284;51.040;13.722;2024-02-23T07:20:59;97931.75;;;8.45;61.33
76448;BME280;65284;51.040;13.722;2024-02-23T07:23:25;97934.59;;;8.43;61.07
76448;BME280;65284;51.040;13.722;2024-02-23T07:25:52;97935.19;;;8.39;61.28
76448;BME280;65284;51.040;13.722;2024-02-23T07:28:19;97948.25;;;8.47;61.13
76448;BME280;65284;51.040;13.722;2024-02-23T07:30:46;97945.38;;;8.49;60.62
76448;BME280;65284;51.040;13.722;2024-02-23T07:33:13;97941.34;;;8.46;61.23
76448;BME280;65284;51.040;13.722;2024-02-23T07:35:39;97953.13;;;8.50;60.66
76448;BME280;65284;51.040;13.722;2024-02-23T07:38:06;97955.16;;;8.48;60.50
76448;BME280;65284;51.040;13.722;2024-02-23T07:40:32;97974.69;;;8.47;60.83
76448;BME280;65284;51.040;13.722;2024-02-23T07:42:59;97962.06;;;8.42;61.05
76448;BME280;65284;51.040;13.722;2024-02-23T07:45:25;97961.25;;;8.42;60.87
76448;BME280;65284;51.040;13.722;2024-02-23T07:47:52;97962.50;;;8.46;60.38
76448;BME280;65284;51.040;13.722;2024-02-23T07:50:19;97969.41;;;8.47;60.53
76448;BME280;65284;51.040;13.722;2024-02-23T07:52:46;97982.41;;;8.42;60.17
76448;BME280;65284;51.040;13.722;2024-02-23T07:55:12;97986.06;;;8.41;60.03
76448;BME280;65284;51.040;13.722;2024-02-23T07:57:42;97988.94;;;8.46;59.99
76448;BME280;65284;51.040;13.722;2024-02-23T08:00:09;97994.00;;;8.41;59.92
76448;BME280;65284;51.040;13.722;2024-02-23T08:02:36;98019.16;;;8.37;59.88
76448;BME280;65284;51.040;13.722;2024-02-23T08:05:03;98027.31;;;8.35;59.85
76448;BME280;65284;51.040;13.722;2024-02-23T08:07:30;98031.16;;;8.33;60.09
76448;BME280;65284;51.040;13.722;2024-02-23T08:09:57;98044.38;;;8.33;60.14
76448;BME280;65284;51.040;13.722;2024-02-23T08:12:24;98027.50;;;8.34;60.58
76448;BME280;65284;51.040;13.722;2024-02-23T08:14:51;98020.59;;;8.33;60.71
76448;BME280;65284;51.040;13.722;2024-02-23T08:17:19;98027.59;;;8.40;59.76
76448;BME280;65284;51.040;13.722;2024-02-23T08:19:46;98026.69;;;8.33;59.51
76448;BME280;65284;51.040;13.722;2024-02-23T08:22:13;98021.22;;;8.35;59.84
76448;BME280;65284;51.040;13.722;2024-02-23T08:24:39;98022.59;;;8.31;59.26
76448;BME280;65284;51.040;13.722;2024-02-23T08:27:06;98023.84;;;8.35;59.21
76448;BME280;65284;51.040;13.722;2024-02-23T08:29:33;98026.50;;;8.35;59.97
76448;BME280;65284;51.040;13.722;2024-02-23T08:31:59;98019.38;;;8.35;60.40
76448;BME280;65284;51.040;13.722;2024-02-23T08:34:26;98006.72;;;8.31;59.89
76448;BME280;65284;51.040;13.722;2024-02-23T08:36:52;98023.38;;;8.25;60.61
76448;BME280;65284;51.040;13.722;2024-02-23T08:39:19;98011.41;;;8.29;60.31
76448;BME280;65284;51.040;13.722;2024-02-23T08:41:48;98011.63;;;8.34;60.57
76448;BME280;65284;51.040;13.722;2024-02-23T08:44:15;98014.25;;;8.27;60.62
76448;BME280;65284;51.040;13.722;2024-02-23T08:46:41;98020.94;;;8.23;61.02
76448;BME280;65284;51.040;13.722;2024-02-23T08:49:07;98013.41;;;8.20;61.04
76448;BME280;65284;51.040;13.722;2024-02-23T08:51:34;98000.22;;;8.27;61.27
76448;BME280;65284;51.040;13.722;2024-02-23T08:54:00;97995.53;;;8.29;61.08
76448;BME280;65284;51.040;13.722;2024-02-23T08:56:31;97992.13;;;8.35;61.00
76448;BME280;65284;51.040;13.722;2024-02-23T08:59:02;98007.22;;;8.41;60.99
76448;BME280;65284;51.040;13.722;2024-02-23T09:01:29;98009.28;;;8.46;61.30
76448;BME280;65284;51.040;13.722;2024-02-23T09:03:56;98020.34;;;8.62;60.44
76448;BME280;65284;51.040;13.722;2024-02-23T09:06:23;98036.63;;;8.59;60.47
76448;BME280;65284;51.040;13.722;2024-02-23T09:08:49;98042.53;;;8.61;60.19
76448;BME280;65284;51.040;13.722;2024-02-23T09:11:16;98038.69;;;8.71;59.85
76448;BME280;65284;51.040;13.722;2024-02-23T09:13:42;98040.75;;;8.75;59.66
76448;BME280;65284;51.040;13.722;2024-02-23T09:16:09;98045.69;;;8.85;58.42
76448;BME280;65284;51.040;13.722;2024-02-23T09:18:35;98040.38;;;8.85;58.59
76448;BME280;65284;51.040;13.722;2024-02-23T09:21:02;98055.03;;;8.81;59.02
76448;BME280;65284;51.040;13.722;2024-02-23T09:23:29;98054.84;;;8.82;58.94
76448;BME280;65284;51.040;13.722;2024-02-23T09:25:55;98067.66;;;8.79;59.03
76448;BME280;65284;51.040;13.722;2024-02-23T09:28:22;98073.00;;;8.92;58.61
76448;BME280;65284;51.040;13.722;2024-02-23T09:30:48;98067.91;;;8.91;59.02
76448;BME280;65284;51.040;13.722;2024-02-23T09:33:15;98068.09;;;8.89;58.63
76448;BME280;65284;51.040;13.722;2024-02-23T09:35:42;98066.91;;;8.98;58.80
76448;BME280;65284;51.040;13.722;2024-02-23T09:38:08;98069.78;;;9.03;58.68
76448;BME280;65284;51.040;13.722;2024-02-23T09:40:35;98068.16;;;9.02;58.37
76448;BME280;65284;51.040;13.722;2024-02-23T09:43:02;98067.13;;;9.10;58.23
76448;BME280;65284;51.040;13.722;2024-02-23T09:45:30;98071.41;;;9.04;57.76
76448;BME280;65284;51.040;13.722;2024-02-23T09:47:57;98080.75;;;9.00;58.08
76448;BME280;65284;51.040;13.722;2024-02-23T09:50:24;98078.34;;;9.05;58.13
76448;BME280;65284;51.040;13.722;2024-02-23T09:52:51;98059.84;;;9.19;58.29
76448;BME280;65284;51.040;13.722;2024-02-23T09:55:18;98060.06;;;9.24;58.05
76448;BME280;65284;51.040;13.722;2024-02-23T09:57:48;98052.34;;;9.29;56.30
76448;BME280;65284;51.040;13.722;2024-02-23T10:00:16;98040.50;;;9.25;55.94
76448;BME280;65284;51.040;13.722;2024-02-23T10:02:43;98044.56;;;9.27;55.83
76448;BME280;65284;51.040;13.722;2024-02-23T10:05:10;98051.31;;;9.30;56.18
76448;BME280;65284;51.040;13.722;2024-02-23T10:07:37;98054.53;;;9.25;56.21
76448;BME280;65284;51.040;13.722;2024-02-23T10:10:07;98064.97;;;9.40;55.88
76448;BME280;65284;51.040;13.722;2024-02-23T10:12:34;98076.38;;;9.34;54.97
76448;BME280;65284;51.040;13.722;2024-02-23T10:15:02;98082.88;;;9.31;55.10
76448;BME280;65284;51.040;13.722;2024-02-23T10:17:31;98090.00;;;9.24;55.49
76448;BME280;65284;51.040;13.722;2024-02-23T10:20:01;98091.22;;;9.22;55.34
76448;BME280;65284;51.040;13.722;2024-02-23T10:22:31;98097.94;;;9.24;55.62
76448;BME280;65284;51.040;13.722;2024-02-23T10:24:57;98103.66;;;9.28;55.63
76448;BME280;65284;51.040;13.722;2024-02-23T10:27:24;98091.03;;;9.30;55.22
76448;BME280;65284;51.040;13.722;2024-02-23T10:29:50;98098.38;;;9.28;54.88
76448;BME280;65284;51.040;13.722;2024-02-23T10:32:18;98095.94;;;9.26;54.32
76448;BME280;65284;51.040;13.722;2024-02-23T10:34:47;98100.84;;;9.36;54.44
76448;BME280;65284;51.040;13.722;2024-02-23T10:37:14;98111.03;;;9.39;54.51
76448;BME280;65284;51.040;13.722;2024-02-23T10:39:41;98112.66;;;9.40;54.40
76448;BME280;65284;51.040;13.722;2024-02-23T10:42:09;98115.13;;;9.42;54.11
76448;BME280;65284;51.040;13.722;2024-02-23T10:44:37;98114.50;;;9.46;53.84
76448;BME280;65284;51.040;13.722;2024-02-23T10:47:04;98114.72;;;9.45;53.62
76448;BME280;65284;51.040;13.722;2024-02-23T10:49:31;98121.84;;;9.44;53.50
76448;BME280;65284;51.040;13.722;2024-02-23T10:52:00;98124.44;;;9.31;53.46
76448;BME280;65284;51.040;13.722;2024-02-23T10:54:26;98117.53;;;9.30;53.55
76448;BME280;65284;51.040;13.722;2024-02-23T10:56:53;98127.31;;;9.36;53.39
76448;BME280;65284;51.040;13.722;2024-02-23T10:59:22;98138.16;;;9.41;52.32
76448;BME280;65284;51.040;13.722;2024-02-23T11:01:51;98143.81;;;9.31;51.49
76448;BME280;65284;51.040;13.722;2024-02-23T11:04:19;98147.31;;;9.39;51.15
76448;BME280;65284;51.040;13.722;2024-02-23T11:06:50;98147.31;;;9.45;51.13
76448;BME280;65284;51.040;13.722;2024-02-23T11:09:21;98159.53;;;9.46;50.99
76448;BME280;65284;51.040;13.722;2024-02-23T11:11:56;98151.41;;;9.48;51.16
76448;BME280;65284;51.040;13.722;2024-02-23T11:14:37;98137.94;;;9.49;50.69
76448;BME280;65284;51.040;13.722;2024-02-23T11:17:04;98141.84;;;9.53;50.08
76448;BME280;65284;51.040;13.722;2024-02-23T11:19:39;98143.69;;;9.53;49.91
76448;BME280;65284;51.040;13.722;2024-02-23T11:22:09;98143.47;;;9.54;50.23
76448;BME280;65284;51.040;13.722;2024-02-23T11:24:48;98143.28;;;9.56;50.13
76448;BME280;65284;51.040;13.722;2024-02-23T11:27:17;98147.72;;;9.49;49.44
76448;BME280;65284;51.040;13.722;2024-02-23T11:29:47;98159.38;;;9.54;49.25
76448;BME280;65284;51.040;13.722;2024-02-23T11:32:17;98160.63;;;9.59;49.54
76448;BME280;65284;51.040;13.722;2024-02-23T11:34:57;98157.34;;;9.50;48.55
76448;BME280;65284;51.040;13.722;2024-02-23T11:37:23;98157.34;;;9.56;48.85
76448;BME280;65284;51.040;13.722;2024-02-23T11:39:50;98150.19;;;9.50;48.58
76448;BME280;65284;51.040;13.722;2024-02-23T11:42:17;98145.72;;;9.57;49.64
76448;BME280;65284;51.040;13.722;2024-02-23T11:44:44;98122.31;;;9.68;49.02
76448;BME280;65284;51.040;13.722;2024-02-23T11:47:10;98129.22;;;9.69;49.07
76448;BME280;65284;51.040;13.722;2024-02-23T11:49:37;98135.97;;;9.65;48.79
76448;BME280;65284;51.040;13.722;2024-02-23T11:52:04;98137.59;;;9.66;48.82
76448;BME280;65284;51.040;13.722;2024-02-23T11:54:30;98149.63;;;9.62;48.91
76448;BME280;65284;51.040;13.722;2024-02-23T11:56:57;98137.59;;;9.66;49.02
76448;BME280;65284;51.040;13.722;2024-02-23T11:59:24;98141.03;;;9.60;49.47
76448;BME280;65284;51.040;13.722;2024-02-23T12:01:51;98141.03;;;9.60;49.87
76448;BME280;65284;51.040;13.722;2024-02-23T12:04:18;98143.28;;;9.63;49.55
76448;BME280;65284;51.040;13.722;2024-02-23T12:06:44;98137.19;;;9.69;49.86
76448;BME280;65284;51.040;13.722;2024-02-23T12:09:13;98124.16;;;9.74;49.73
76448;BME280;65284;51.040;13.722;2024-02-23T12:11:40;98133.53;;;9.83;49.82
76448;BME280;65284;51.040;13.722;2024-02-23T12:14:08;98135.16;;;9.84;50.32
76448;BME280;65284;51.040;13.722;2024-02-23T12:16:35;98140.88;;;9.81;50.00
76448;BME280;65284;51.040;13.722;2024-02-23T12:19:02;98140.28;;;9.86;50.43
76448;BME280;65284;51.040;13.722;2024-02-23T12:21:29;98135.16;;;9.84;50.03
76448;BME280;65284;51.040;13.722;2024-02-23T12:23:56;98149.44;;;9.83;49.75
76448;BME280;65284;51.040;13.722;2024-02-23T12:26:22;98145.59;;;9.92;49.48
76448;BME280;65284;51.040;13.722;2024-02-23T12:28:49;98144.16;;;9.90;49.57
76448;BME280;65284;51.040;13.722;2024-02-23T12:31:16;98136.81;;;9.92;49.03
76448;BME280;65284;51.040;13.722;2024-02-23T12:33:50;98145.00;;;10.03;48.87
76448;BME280;65284;51.040;13.722;2024-02-23T12:36:16;98141.72;;;10.01;49.29
76448;BME280;65284;51.040;13.722;2024-02-23T12:38:43;98133.94;;;9.93;47.81
76448;BME280;65284;51.040;13.722;2024-02-23T12:41:10;98128.25;;;9.90;47.03
76448;BME280;65284;51.040;13.722;2024-02-23T12:43:37;98130.06;;;10.02;47.32
76448;BME280;65284;51.040;13.722;2024-02-23T12:46:07;98122.13;;;9.96;47.19
76448;BME280;65284;51.040;13.722;2024-02-23T12:48:35;98127.84;;;9.86;47.22
76448;BME280;65284;51.040;13.722;2024-02-23T12:51:01;98112.53;;;10.01;46.89
76448;BME280;65284;51.040;13.722;2024-02-23T12:53:38;98121.72;;;9.79;47.47
76448;BME280;65284;51.040;13.722;2024-02-23T12:56:10;98129.84;;;9.71;47.88
76448;BME280;65284;51.040;13.722;2024-02-23T12:58:41;98127.63;;;9.81;47.45